createdAt,value
2023-04-30T00:02:32.971Z,99.90
2023-04-30T00:07:38.422Z,99.90
2023-04-30T00:12:43.725Z,99.90
2023-04-30T00:17:49.244Z,99.90
2023-04-30T00:22:54.714Z,99.90
2023-04-30T00:28:00.312Z,99.90
2023-04-30T00:33:14.535Z,99.90
2023-04-30T00:38:20.125Z,99.90
2023-04-30T00:43:25.904Z,99.90
2023-04-30T00:48:31.478Z,99.90
2023-04-30T00:53:38.466Z,99.90
2023-04-30T00:58:44.706Z,99.90
2023-04-30T01:03:50.076Z,99.90
2023-04-30T01:08:55.864Z,99.90
2023-04-30T01:14:10.802Z,99.90
2023-04-30T01:19:43.753Z,99.90
2023-04-30T01:25:00.794Z,99.90
2023-04-30T01:30:08.649Z,99.90
2023-04-30T01:35:14.123Z,99.90
2023-04-30T01:40:34.835Z,99.90
2023-04-30T01:45:43.543Z,99.90
2023-04-30T01:51:14.750Z,99.90
2023-04-30T01:56:34.473Z,99.90
2023-04-30T02:01:40.366Z,99.90
2023-04-30T02:06:45.859Z,99.90
2023-04-30T02:11:52.857Z,99.90
2023-04-30T02:16:58.615Z,99.90
2023-04-30T02:22:03.834Z,99.90
2023-04-30T02:27:11.810Z,99.90
2023-04-30T02:32:26.470Z,99.90
2023-04-30T02:37:32.294Z,99.90
2023-04-30T02:42:38.019Z,99.90
2023-04-30T02:47:43.696Z,99.90
2023-04-30T02:52:52.270Z,99.90
2023-04-30T02:57:57.875Z,99.90
2023-04-30T03:03:03.533Z,99.90
2023-04-30T03:08:09.238Z,99.90
2023-04-30T03:13:14.508Z,99.90
2023-04-30T03:18:20.461Z,99.90
2023-04-30T03:23:29.394Z,99.90
2023-04-30T03:28:34.921Z,99.90
2023-04-30T03:33:40.736Z,99.90
2023-04-30T03:38:46.245Z,99.90
2023-04-30T03:43:54.411Z,99.90
2023-04-30T03:48:59.588Z,99.90
2023-04-30T03:54:05.239Z,99.90
2023-04-30T03:59:11.118Z,99.90
2023-04-30T04:04:17.457Z,99.90
2023-04-30T04:09:22.997Z,99.90
2023-04-30T04:14:28.442Z,99.90
2023-04-30T04:19:34.289Z,99.90
2023-04-30T04:24:39.891Z,99.90
2023-04-30T04:29:46.065Z,99.90
2023-04-30T04:34:52.340Z,99.90
2023-04-30T04:39:59.638Z,99.90
2023-04-30T04:45:05.484Z,99.90
2023-04-30T04:50:20.958Z,99.90
2023-04-30T04:55:26.884Z,99.90
2023-04-30T05:00:32.603Z,99.90
2023-04-30T05:05:38.070Z,99.90
2023-04-30T05:10:43.526Z,99.90
2023-04-30T05:15:52.082Z,99.90
2023-04-30T05:21:00.665Z,99.90
2023-04-30T05:26:06.926Z,99.90
2023-04-30T05:31:12.534Z,99.90
2023-04-30T05:36:18.350Z,99.90
2023-04-30T05:41:24.256Z,99.90
2023-04-30T05:46:29.501Z,99.90
2023-04-30T05:51:35.308Z,99.90
2023-04-30T05:56:43.416Z,99.90
2023-04-30T06:01:48.649Z,99.90
2023-04-30T06:06:54.346Z,99.90
2023-04-30T06:12:00.120Z,99.90
2023-04-30T06:17:05.630Z,99.90
2023-04-30T06:22:11.056Z,99.90
2023-04-30T06:27:17.140Z,99.90
2023-04-30T06:32:23.022Z,99.90
2023-04-30T06:37:28.214Z,99.10
2023-04-30T06:42:37.383Z,95.70
2023-04-30T06:47:44.220Z,99.90
2023-04-30T06:52:50.101Z,99.90
2023-04-30T06:57:55.896Z,99.90
2023-04-30T07:03:05.221Z,99.90
2023-04-30T07:08:10.776Z,99.90
2023-04-30T07:13:24.959Z,99.90
2023-04-30T07:30:15.437Z,99.90
2023-04-30T07:35:21.186Z,95.40
2023-04-30T07:40:35.479Z,90.20
2023-04-30T07:45:42.302Z,77.70
2023-04-30T07:50:50.762Z,73.20
2023-04-30T07:55:58.242Z,70.30
2023-04-30T08:01:04.431Z,72.40
2023-04-30T08:06:10.416Z,78.30
2023-04-30T08:11:16.823Z,86.70
2023-04-30T08:16:22.274Z,89.70
2023-04-30T08:21:29.564Z,91.70
2023-04-30T08:26:34.998Z,91.00
2023-04-30T08:31:40.546Z,88.20
2023-04-30T08:36:45.979Z,93.00
2023-04-30T08:41:59.281Z,92.70
2023-04-30T08:47:06.321Z,89.10
2023-04-30T08:52:12.560Z,95.60
2023-04-30T08:57:17.979Z,95.90
2023-04-30T09:02:23.661Z,98.70
2023-04-30T09:07:30.533Z,99.90
2023-04-30T09:12:36.749Z,99.90
2023-04-30T09:17:46.554Z,99.90
2023-04-30T09:23:09.765Z,99.90
2023-04-30T09:28:16.218Z,99.90
2023-04-30T09:33:22.052Z,99.90
2023-04-30T09:38:28.397Z,95.90
2023-04-30T09:43:34.919Z,99.90
2023-04-30T09:48:48.457Z,99.90
2023-04-30T09:54:14.968Z,99.10
2023-04-30T09:59:24.468Z,96.40
2023-04-30T10:04:38.744Z,99.10
2023-04-30T10:09:53.658Z,99.90
2023-04-30T10:15:23.202Z,99.90
2023-04-30T10:20:31.892Z,98.80
2023-04-30T10:25:42.632Z,99.90
2023-04-30T10:30:49.089Z,99.90
2023-04-30T10:36:40.641Z,99.90
2023-04-30T10:41:50.987Z,99.90
2023-04-30T10:47:04.095Z,99.90
2023-04-30T10:52:09.485Z,99.90
2023-04-30T10:57:16.814Z,99.90
2023-04-30T11:02:22.962Z,99.90
2023-04-30T11:07:30.424Z,99.90
2023-04-30T11:12:35.666Z,99.90
2023-04-30T11:17:51.548Z,99.90
2023-04-30T11:23:24.926Z,99.90
2023-04-30T11:28:39.364Z,99.90
2023-04-30T11:33:44.975Z,99.90
2023-04-30T11:38:50.192Z,99.90
2023-04-30T11:43:58.014Z,99.90
2023-04-30T11:49:04.045Z,99.90
2023-04-30T11:54:17.379Z,99.90
2023-04-30T11:59:22.647Z,99.90
2023-04-30T12:04:31.331Z,99.90
2023-04-30T12:10:01.027Z,99.90
2023-04-30T12:15:18.448Z,99.90
2023-04-30T12:20:25.431Z,99.90
2023-04-30T12:25:31.506Z,99.90
2023-04-30T12:30:37.400Z,99.90
2023-04-30T12:35:44.723Z,99.90
2023-04-30T12:40:50.703Z,99.90
2023-04-30T12:45:59.312Z,99.90
2023-04-30T12:51:08.086Z,99.90
2023-04-30T12:56:18.256Z,99.90
2023-04-30T13:01:27.779Z,99.90
2023-04-30T13:06:34.716Z,99.90
2023-04-30T13:11:42.710Z,99.90
2023-04-30T13:16:49.196Z,99.90
2023-04-30T13:21:55.067Z,99.90
2023-04-30T13:27:01.240Z,99.90
2023-04-30T13:32:06.340Z,99.90
2023-04-30T13:37:11.818Z,99.90
2023-04-30T13:42:17.586Z,99.90
2023-04-30T13:47:23.239Z,99.90
2023-04-30T13:52:29.175Z,99.90
2023-04-30T13:57:34.846Z,99.90
2023-04-30T14:02:41.382Z,99.90
2023-04-30T14:07:46.884Z,99.90
2023-04-30T14:12:55.483Z,99.90
2023-04-30T14:18:01.872Z,99.90
2023-04-30T14:23:07.840Z,99.90
2023-04-30T14:28:13.350Z,99.90
2023-04-30T14:33:18.581Z,99.90
2023-04-30T14:44:52.000Z,99.90
2023-04-30T14:49:58.500Z,99.90
2023-04-30T14:55:04.681Z,99.90
2023-04-30T15:06:11.132Z,99.90
2023-04-30T15:11:23.173Z,99.90
2023-04-30T15:30:50.601Z,99.90
2023-04-30T15:49:10.123Z,99.90
2023-04-30T15:54:16.286Z,99.90
2023-04-30T15:59:31.372Z,99.90
2023-04-30T16:05:08.643Z,99.90
2023-04-30T16:10:23.075Z,99.90
2023-04-30T16:16:07.289Z,99.90
2023-04-30T16:22:16.071Z,99.90
2023-04-30T16:28:01.909Z,99.90
2023-04-30T16:39:26.766Z,99.90
2023-04-30T16:45:00.153Z,99.90
2023-04-30T16:57:14.231Z,99.90
2023-04-30T17:02:23.250Z,99.90
2023-04-30T17:07:30.433Z,99.90
2023-04-30T17:24:29.781Z,99.90
2023-04-30T17:41:39.886Z,99.90
2023-04-30T17:46:58.226Z,99.90
2023-04-30T18:04:22.353Z,99.90
2023-04-30T18:15:35.572Z,99.90
2023-04-30T18:20:40.453Z,99.90
2023-04-30T18:25:45.498Z,99.90
2023-04-30T18:30:51.316Z,99.90
2023-04-30T18:36:02.428Z,99.90
2023-04-30T18:41:09.562Z,99.90
2023-04-30T18:46:15.488Z,99.90
2023-04-30T18:51:20.385Z,99.90
2023-04-30T18:56:26.165Z,99.90
2023-04-30T19:01:31.276Z,99.90
2023-04-30T19:06:36.885Z,99.90
2023-04-30T19:11:42.665Z,99.90
2023-04-30T19:16:48.944Z,99.90
2023-04-30T19:21:55.095Z,99.90
2023-04-30T19:26:59.835Z,99.90
2023-04-30T19:32:05.962Z,99.90
2023-04-30T19:37:11.338Z,99.90
2023-04-30T19:42:17.968Z,99.90
2023-04-30T19:47:25.493Z,99.90
2023-04-30T19:52:30.800Z,99.90
2023-04-30T19:57:37.541Z,99.90
2023-04-30T20:02:42.886Z,99.90
2023-04-30T20:07:48.123Z,99.90
2023-04-30T20:12:57.159Z,99.90
2023-04-30T20:18:03.022Z,99.90
2023-04-30T20:23:18.895Z,99.90
2023-04-30T20:28:24.062Z,99.90
2023-04-30T20:33:33.430Z,99.90
2023-04-30T20:38:39.077Z,99.90
2023-04-30T20:43:44.792Z,99.90
2023-04-30T20:48:50.883Z,99.90
2023-04-30T20:53:56.078Z,99.90
2023-04-30T20:59:01.791Z,99.90
2023-04-30T21:04:07.111Z,99.90
2023-04-30T21:09:13.981Z,99.90
2023-04-30T21:14:19.203Z,99.90
2023-04-30T21:19:25.234Z,99.90
2023-04-30T21:24:33.192Z,99.90
2023-04-30T21:29:39.013Z,99.90
2023-04-30T21:34:45.558Z,99.90
2023-04-30T21:39:50.860Z,99.90
2023-04-30T21:45:06.531Z,99.90
2023-04-30T21:50:12.696Z,99.90
2023-04-30T21:55:18.165Z,99.90
2023-04-30T22:00:23.825Z,99.90
2023-04-30T22:05:29.371Z,99.90
2023-04-30T22:10:34.545Z,99.90
2023-04-30T22:15:47.752Z,99.90
2023-04-30T22:20:54.626Z,99.90
2023-04-30T22:25:59.353Z,99.90
2023-04-30T22:31:05.445Z,99.90
2023-04-30T22:36:11.824Z,99.90
2023-04-30T22:41:17.473Z,99.90
2023-04-30T22:46:31.452Z,99.90
2023-04-30T22:51:38.723Z,99.90
2023-04-30T22:56:43.906Z,99.90
2023-04-30T23:01:51.948Z,99.90
2023-04-30T23:06:58.101Z,99.90
2023-04-30T23:12:04.171Z,99.90
2023-04-30T23:17:09.488Z,99.90
2023-04-30T23:22:15.549Z,99.90
2023-04-30T23:27:20.938Z,99.90
2023-04-30T23:32:26.539Z,99.90
2023-04-30T23:37:32.211Z,99.90
2023-04-30T23:42:37.937Z,99.90
2023-04-30T23:47:43.293Z,99.90
2023-04-30T23:52:49.284Z,99.90
2023-04-30T23:57:54.050Z,99.90
